sensor_id;sensor_type;location;lat;lon;timestamp;pressure;altitude;pressure_sealevel;temperature;humidity
52249;BME280;38541;48.130;8.378;2022-08-25T00:01:01;92936.59;;;17.10;63.02
52249;BME280;38541;48.130;8.378;2022-08-25T00:03:33;92938.38;;;17.01;63.06
52249;BME280;38541;48.130;8.378;2022-08-25T00:06:05;92935.78;;;16.96;63.88
52249;BME280;38541;48.130;8.378;2022-08-25T00:08:33;92937.94;;;16.94;64.09
52249;BME280;38541;48.130;8.378;2022-08-25T00:11:00;92938.84;;;16.89;64.75
52249;BME280;38541;48.130;8.378;2022-08-25T00:13:29;92938.94;;;16.84;65.44
52249;BME280;38541;48.130;8.378;2022-08-25T00:15:56;92942.88;;;16.87;65.19
52249;BME280;38541;48.130;8.378;2022-08-25T00:18:22;92931.28;;;16.82;65.18
52249;BME280;38541;48.130;8.378;2022-08-25T00:20:49;92935.81;;;16.82;65.71
52249;BME280;38541;48.130;8.378;2022-08-25T00:23:17;92933.25;;;16.77;65.20
52249;BME280;38541;48.130;8.378;2022-08-25T00:25:44;92938.75;;;16.80;64.68
52249;BME280;38541;48.130;8.378;2022-08-25T00:28:10;92933.63;;;16.84;64.72
52249;BME280;38541;48.130;8.378;2022-08-25T00:30:37;92930.59;;;16.91;64.51
52249;BME280;38541;48.130;8.378;2022-08-25T00:33:04;92930.91;;;16.89;63.92
52249;BME280;38541;48.130;8.378;2022-08-25T00:35:31;92926.66;;;16.74;63.37
52249;BME280;38541;48.130;8.378;2022-08-25T00:37:57;92936.41;;;16.65;62.88
52249;BME280;38541;48.130;8.378;2022-08-25T00:40:25;92933.94;;;16.54;62.95
52249;BME280;38541;48.130;8.378;2022-08-25T00:42:52;92929.72;;;16.53;63.65
52249;BME280;38541;48.130;8.378;2022-08-25T00:45:20;92923.63;;;16.53;63.27
52249;BME280;38541;48.130;8.378;2022-08-25T00:47:46;92928.03;;;16.44;63.28
52249;BME280;38541;48.130;8.378;2022-08-25T00:50:13;92933.81;;;16.32;63.36
52249;BME280;38541;48.130;8.378;2022-08-25T00:52:43;92939.22;;;16.26;63.60
52249;BME280;38541;48.130;8.378;2022-08-25T00:55:16;92934.03;;;16.21;63.92
52249;BME280;38541;48.130;8.378;2022-08-25T00:57:49;92934.41;;;16.15;64.88
52249;BME280;38541;48.130;8.378;2022-08-25T01:00:24;92934.78;;;16.08;65.84
52249;BME280;38541;48.130;8.378;2022-08-25T01:02:51;92937.09;;;16.09;65.84
52249;BME280;38541;48.130;8.378;2022-08-25T01:05:18;92936.56;;;16.13;66.04
52249;BME280;38541;48.130;8.378;2022-08-25T01:07:46;92933.09;;;16.12;66.17
52249;BME280;38541;48.130;8.378;2022-08-25T01:10:12;92933.69;;;16.09;67.21
52249;BME280;38541;48.130;8.378;2022-08-25T01:12:40;92936.94;;;16.06;67.43
52249;BME280;38541;48.130;8.378;2022-08-25T01:15:08;92935.84;;;16.07;67.45
52249;BME280;38541;48.130;8.378;2022-08-25T01:17:55;92938.50;;;16.07;66.25
52249;BME280;38541;48.130;8.378;2022-08-25T01:20:24;92931.19;;;15.98;66.56
52249;BME280;38541;48.130;8.378;2022-08-25T01:22:55;92933.34;;;15.96;66.90
52249;BME280;38541;48.130;8.378;2022-08-25T01:25:47;92935.03;;;15.92;66.01
52249;BME280;38541;48.130;8.378;2022-08-25T01:28:15;92934.00;;;15.88;66.07
52249;BME280;38541;48.130;8.378;2022-08-25T01:30:42;92933.50;;;15.86;66.32
52249;BME280;38541;48.130;8.378;2022-08-25T01:33:10;92928.56;;;15.79;66.11
52249;BME280;38541;48.130;8.378;2022-08-25T01:35:39;92934.25;;;15.73;66.85
52249;BME280;38541;48.130;8.378;2022-08-25T01:38:07;92937.25;;;15.66;66.36
52249;BME280;38541;48.130;8.378;2022-08-25T01:40:35;92941.25;;;15.63;66.81
52249;BME280;38541;48.130;8.378;2022-08-25T01:45:36;92939.75;;;15.57;67.50
52249;BME280;38541;48.130;8.378;2022-08-25T01:48:05;92943.00;;;15.54;67.41
52249;BME280;38541;48.130;8.378;2022-08-25T01:50:33;92935.84;;;15.54;68.82
52249;BME280;38541;48.130;8.378;2022-08-25T01:56:22;92925.31;;;15.49;67.66
52249;BME280;38541;48.130;8.378;2022-08-25T01:58:49;92929.13;;;15.43;67.34
52249;BME280;38541;48.130;8.378;2022-08-25T02:01:20;92922.88;;;15.34;66.80
52249;BME280;38541;48.130;8.378;2022-08-25T02:03:50;92921.13;;;15.29;66.36
52249;BME280;38541;48.130;8.378;2022-08-25T02:06:22;92923.78;;;15.29;66.95
52249;BME280;38541;48.130;8.378;2022-08-25T02:08:58;92920.81;;;15.31;67.15
52249;BME280;38541;48.130;8.378;2022-08-25T02:11:26;92916.91;;;15.28;67.18
52249;BME280;38541;48.130;8.378;2022-08-25T02:13:53;92927.53;;;15.23;67.47
52249;BME280;38541;48.130;8.378;2022-08-25T02:16:24;92924.13;;;15.22;67.77
52249;BME280;38541;48.130;8.378;2022-08-25T02:18:54;92919.41;;;15.19;67.84
52249;BME280;38541;48.130;8.378;2022-08-25T02:21:21;92919.97;;;15.16;68.10
52249;BME280;38541;48.130;8.378;2022-08-25T02:23:48;92916.53;;;15.16;68.05
52249;BME280;38541;48.130;8.378;2022-08-25T02:26:16;92913.88;;;15.16;68.64
52249;BME280;38541;48.130;8.378;2022-08-25T02:28:45;92902.81;;;15.14;68.63
52249;BME280;38541;48.130;8.378;2022-08-25T02:31:12;92904.66;;;15.13;68.54
52249;BME280;38541;48.130;8.378;2022-08-25T02:33:39;92903.38;;;15.10;67.91
52249;BME280;38541;48.130;8.378;2022-08-25T02:36:06;92903.00;;;14.98;67.90
52249;BME280;38541;48.130;8.378;2022-08-25T02:38:33;92903.28;;;14.96;68.02
52249;BME280;38541;48.130;8.378;2022-08-25T02:41:00;92908.28;;;14.98;68.10
52249;BME280;38541;48.130;8.378;2022-08-25T02:43:27;92907.22;;;14.99;68.26
52249;BME280;38541;48.130;8.378;2022-08-25T02:45:54;92907.22;;;14.99;68.51
52249;BME280;38541;48.130;8.378;2022-08-25T02:48:21;92908.22;;;15.03;68.86
52249;BME280;38541;48.130;8.378;2022-08-25T02:50:50;92911.38;;;15.05;69.16
52249;BME280;38541;48.130;8.378;2022-08-25T02:53:19;92908.78;;;15.00;68.17
52249;BME280;38541;48.130;8.378;2022-08-25T02:55:46;92904.34;;;14.95;68.52
52249;BME280;38541;48.130;8.378;2022-08-25T02:58:13;92905.41;;;14.94;68.55
52249;BME280;38541;48.130;8.378;2022-08-25T03:00:40;92898.88;;;14.92;68.05
52249;BME280;38541;48.130;8.378;2022-08-25T03:03:08;92895.75;;;14.84;67.95
52249;BME280;38541;48.130;8.378;2022-08-25T03:05:35;92891.03;;;14.81;69.14
52249;BME280;38541;48.130;8.378;2022-08-25T03:08:02;92891.78;;;14.87;68.82
52249;BME280;38541;48.130;8.378;2022-08-25T03:10:30;92887.31;;;14.82;68.74
52249;BME280;38541;48.130;8.378;2022-08-25T03:12:57;92892.13;;;14.80;68.54
52249;BME280;38541;48.130;8.378;2022-08-25T03:15:24;92883.75;;;14.73;68.60
52249;BME280;38541;48.130;8.378;2022-08-25T03:17:55;92886.41;;;14.73;68.99
52249;BME280;38541;48.130;8.378;2022-08-25T03:20:25;92878.47;;;14.68;68.76
52249;BME280;38541;48.130;8.378;2022-08-25T03:22:53;92882.44;;;14.70;68.33
52249;BME280;38541;48.130;8.378;2022-08-25T03:25:20;92879.06;;;14.65;68.59
52249;BME280;38541;48.130;8.378;2022-08-25T03:28:09;92879.34;;;14.63;68.36
52249;BME280;38541;48.130;8.378;2022-08-25T03:30:36;92879.13;;;14.60;68.32
52249;BME280;38541;48.130;8.378;2022-08-25T03:33:03;92883.41;;;14.55;67.60
52249;BME280;38541;48.130;8.378;2022-08-25T03:35:29;92894.47;;;14.58;68.15
52249;BME280;38541;48.130;8.378;2022-08-25T03:37:57;92891.59;;;14.54;68.58
52249;BME280;38541;48.130;8.378;2022-08-25T03:40:24;92893.81;;;14.47;68.70
52249;BME280;38541;48.130;8.378;2022-08-25T03:42:51;92891.19;;;14.47;69.08
52249;BME280;38541;48.130;8.378;2022-08-25T03:45:20;92896.69;;;14.50;69.39
52249;BME280;38541;48.130;8.378;2022-08-25T03:47:48;92892.91;;;14.57;69.10
52249;BME280;38541;48.130;8.378;2022-08-25T03:50:16;92896.06;;;14.59;70.11
52249;BME280;38541;48.130;8.378;2022-08-25T03:52:44;92895.97;;;14.45;69.38
52249;BME280;38541;48.130;8.378;2022-08-25T03:55:12;92889.38;;;14.42;69.35
52249;BME280;38541;48.130;8.378;2022-08-25T03:57:40;92889.59;;;14.46;70.17
52249;BME280;38541;48.130;8.378;2022-08-25T04:00:08;92889.38;;;14.42;70.27
52249;BME280;38541;48.130;8.378;2022-08-25T04:02:38;92887.81;;;14.41;70.83
52249;BME280;38541;48.130;8.378;2022-08-25T04:05:06;92889.94;;;14.39;70.38
52249;BME280;38541;48.130;8.378;2022-08-25T04:07:34;92893.41;;;14.34;70.27
52249;BME280;38541;48.130;8.378;2022-08-25T04:10:00;92894.78;;;14.32;70.39
52249;BME280;38541;48.130;8.378;2022-08-25T04:12:27;92890.50;;;14.36;70.33
52249;BME280;38541;48.130;8.378;2022-08-25T04:14:54;92895.78;;;14.36;70.77
52249;BME280;38541;48.130;8.378;2022-08-25T04:17:21;92893.66;;;14.38;70.63
52249;BME280;38541;48.130;8.378;2022-08-25T04:19:48;92891.78;;;14.38;70.03
52249;BME280;38541;48.130;8.378;2022-08-25T04:22:15;92886.28;;;14.35;69.49
52249;BME280;38541;48.130;8.378;2022-08-25T04:24:42;92887.13;;;14.30;70.06
52249;BME280;38541;48.130;8.378;2022-08-25T04:27:09;92881.59;;;14.26;69.77
52249;BME280;38541;48.130;8.378;2022-08-25T04:29:35;92872.41;;;14.24;69.57
52249;BME280;38541;48.130;8.378;2022-08-25T04:32:02;92872.16;;;14.20;69.71
52249;BME280;38541;48.130;8.378;2022-08-25T04:34:29;92884.38;;;14.16;69.74
52249;BME280;38541;48.130;8.378;2022-08-25T04:37:01;92879.09;;;14.16;69.78
52249;BME280;38541;48.130;8.378;2022-08-25T04:39:29;92882.84;;;14.10;69.97
52249;BME280;38541;48.130;8.378;2022-08-25T04:41:56;92881.75;;;14.11;70.11
52249;BME280;38541;48.130;8.378;2022-08-25T04:44:22;92874.56;;;14.17;69.49
52249;BME280;38541;48.130;8.378;2022-08-25T04:46:49;92877.50;;;14.15;70.16
52249;BME280;38541;48.130;8.378;2022-08-25T04:49:16;92879.34;;;14.15;69.66
52249;BME280;38541;48.130;8.378;2022-08-25T04:51:42;92883.88;;;14.14;69.73
52249;BME280;38541;48.130;8.378;2022-08-25T04:54:12;92881.25;;;14.09;69.72
52249;BME280;38541;48.130;8.378;2022-08-25T04:56:39;92874.72;;;14.01;69.48
52249;BME280;38541;48.130;8.378;2022-08-25T04:59:09;92876.88;;;13.99;69.87
52249;BME280;38541;48.130;8.378;2022-08-25T05:01:38;92886.09;;;14.02;70.66
52249;BME280;38541;48.130;8.378;2022-08-25T05:04:08;92888.22;;;14.00;71.88
52249;BME280;38541;48.130;8.378;2022-08-25T05:06:41;92885.59;;;14.00;72.72
52249;BME280;38541;48.130;8.378;2022-08-25T05:09:10;92883.72;;;14.00;72.47
52249;BME280;38541;48.130;8.378;2022-08-25T05:11:37;92878.50;;;13.95;72.93
52249;BME280;38541;48.130;8.378;2022-08-25T05:14:04;92881.31;;;14.04;73.37
52249;BME280;38541;48.130;8.378;2022-08-25T05:16:37;92878.91;;;14.07;74.15
52249;BME280;38541;48.130;8.378;2022-08-25T05:19:04;92886.22;;;14.16;73.62
52249;BME280;38541;48.130;8.378;2022-08-25T05:21:31;92883.31;;;14.17;73.06
52249;BME280;38541;48.130;8.378;2022-08-25T05:23:59;92873.50;;;14.18;72.86
52249;BME280;38541;48.130;8.378;2022-08-25T05:26:27;92883.25;;;14.22;72.65
52249;BME280;38541;48.130;8.378;2022-08-25T05:28:57;92875.56;;;14.26;72.06
52249;BME280;38541;48.130;8.378;2022-08-25T05:31:25;92868.41;;;14.26;71.31
52249;BME280;38541;48.130;8.378;2022-08-25T05:33:53;92871.03;;;14.26;72.05
52249;BME280;38541;48.130;8.378;2022-08-25T05:36:21;92869.47;;;14.25;72.26
52249;BME280;38541;48.130;8.378;2022-08-25T05:38:49;92864.06;;;14.36;71.84
52249;BME280;38541;48.130;8.378;2022-08-25T05:41:18;92873.06;;;14.35;71.97
52249;BME280;38541;48.130;8.378;2022-08-25T05:43:47;92870.13;;;14.36;72.18
52249;BME280;38541;48.130;8.378;2022-08-25T05:46:16;92872.50;;;14.38;73.35
52249;BME280;38541;48.130;8.378;2022-08-25T05:48:43;92866.66;;;14.41;73.57
52249;BME280;38541;48.130;8.378;2022-08-25T05:51:11;92868.72;;;14.44;73.39
52249;BME280;38541;48.130;8.378;2022-08-25T05:53:39;92869.81;;;14.43;73.82
52249;BME280;38541;48.130;8.378;2022-08-25T05:56:07;92867.09;;;14.48;74.95
52249;BME280;38541;48.130;8.378;2022-08-25T05:58:35;92865.41;;;14.58;75.34
52249;BME280;38541;48.130;8.378;2022-08-25T06:01:02;92858.63;;;14.70;75.03
52249;BME280;38541;48.130;8.378;2022-08-25T06:03:49;92855.66;;;14.77;74.45
52249;BME280;38541;48.130;8.378;2022-08-25T06:06:20;92849.53;;;14.82;73.88
52249;BME280;38541;48.130;8.378;2022-08-25T06:08:47;92855.00;;;14.86;74.04
52249;BME280;38541;48.130;8.378;2022-08-25T06:11:14;92852.91;;;14.88;74.89
52249;BME280;38541;48.130;8.378;2022-08-25T06:13:42;92851.75;;;14.94;75.47
52249;BME280;38541;48.130;8.378;2022-08-25T06:16:09;92853.31;;;14.95;76.36
52249;BME280;38541;48.130;8.378;2022-08-25T06:18:35;92848.16;;;15.04;76.27
52249;BME280;38541;48.130;8.378;2022-08-25T06:21:10;92831.84;;;15.16;75.95
52249;BME280;38541;48.130;8.378;2022-08-25T06:23:38;92837.53;;;15.23;75.23
52249;BME280;38541;48.130;8.378;2022-08-25T06:26:06;92835.03;;;15.32;74.76
52249;BME280;38541;48.130;8.378;2022-08-25T06:28:36;92838.13;;;15.39;74.62
52249;BME280;38541;48.130;8.378;2022-08-25T06:31:03;92829.00;;;15.45;74.55
52249;BME280;38541;48.130;8.378;2022-08-25T06:33:30;92837.06;;;15.54;74.83
52249;BME280;38541;48.130;8.378;2022-08-25T06:35:56;92827.31;;;15.68;74.67
52249;BME280;38541;48.130;8.378;2022-08-25T06:38:23;92824.06;;;15.72;73.87
52249;BME280;38541;48.130;8.378;2022-08-25T06:40:51;92830.06;;;15.77;74.00
52249;BME280;38541;48.130;8.378;2022-08-25T06:43:20;92831.25;;;15.85;73.80
52249;BME280;38541;48.130;8.378;2022-08-25T06:45:47;92828.44;;;15.95;74.22
52249;BME280;38541;48.130;8.378;2022-08-25T06:48:14;92825.13;;;16.04;74.26
52249;BME280;38541;48.130;8.378;2022-08-25T06:50:41;92833.47;;;16.11;74.80
52249;BME280;38541;48.130;8.378;2022-08-25T06:53:09;92826.91;;;16.22;74.68
52249;BME280;38541;48.130;8.378;2022-08-25T06:55:35;92823.44;;;16.36;74.19
52249;BME280;38541;48.130;8.378;2022-08-25T06:58:02;92830.13;;;16.47;74.58
52249;BME280;38541;48.130;8.378;2022-08-25T07:00:31;92817.16;;;16.60;74.38
52249;BME280;38541;48.130;8.378;2022-08-25T07:02:58;92818.50;;;16.71;74.69
52249;BME280;38541;48.130;8.378;2022-08-25T07:05:27;92814.53;;;16.82;74.61
52249;BME280;38541;48.130;8.378;2022-08-25T07:08:08;92814.22;;;16.98;74.35
52249;BME280;38541;48.130;8.378;2022-08-25T07:10:37;92815.56;;;17.09;74.64
52249;BME280;38541;48.130;8.378;2022-08-25T07:13:03;92817.38;;;17.23;74.06
52249;BME280;38541;48.130;8.378;2022-08-25T07:15:30;92819.19;;;17.36;74.45
52249;BME280;38541;48.130;8.378;2022-08-25T07:17:56;92823.16;;;17.48;73.19
52249;BME280;38541;48.130;8.378;2022-08-25T07:20:23;92825.28;;;17.60;72.73
52249;BME280;38541;48.130;8.378;2022-08-25T07:22:54;92831.72;;;17.67;72.54
52249;BME280;38541;48.130;8.378;2022-08-25T07:25:22;92825.38;;;17.77;71.94
52249;BME280;38541;48.130;8.378;2022-08-25T07:27:49;92830.13;;;17.89;71.77
52249;BME280;38541;48.130;8.378;2022-08-25T07:30:16;92822.19;;;17.98;71.56
52249;BME280;38541;48.130;8.378;2022-08-25T07:32:42;92826.00;;;18.06;70.73
52249;BME280;38541;48.130;8.378;2022-08-25T07:35:10;92819.94;;;18.14;70.84
52249;BME280;38541;48.130;8.378;2022-08-25T07:37:54;92823.88;;;18.25;70.71
52249;BME280;38541;48.130;8.378;2022-08-25T07:40:28;92834.09;;;18.32;69.97
52249;BME280;38541;48.130;8.378;2022-08-25T07:42:58;92832.72;;;18.44;69.50
52249;BME280;38541;48.130;8.378;2022-08-25T07:45:29;92835.06;;;18.54;69.06
52249;BME280;38541;48.130;8.378;2022-08-25T07:47:58;92833.84;;;18.60;68.79
52249;BME280;38541;48.130;8.378;2022-08-25T07:50:25;92839.97;;;18.70;68.27
52249;BME280;38541;48.130;8.378;2022-08-25T07:52:52;92836.84;;;18.76;67.82
52249;BME280;38541;48.130;8.378;2022-08-25T07:55:22;92840.94;;;18.82;67.30
52249;BME280;38541;48.130;8.378;2022-08-25T07:57:49;92840.34;;;18.86;67.03
52249;BME280;38541;48.130;8.378;2022-08-25T08:00:22;92830.63;;;18.90;66.30
52249;BME280;38541;48.130;8.378;2022-08-25T08:02:50;92843.16;;;18.98;66.63
52249;BME280;38541;48.130;8.378;2022-08-25T08:05:16;92845.69;;;19.03;66.22
52249;BME280;38541;48.130;8.378;2022-08-25T08:07:43;92838.50;;;19.13;66.13
52249;BME280;38541;48.130;8.378;2022-08-25T08:10:12;92841.94;;;19.22;66.03
52249;BME280;38541;48.130;8.378;2022-08-25T08:13:00;92836.47;;;19.27;65.20
52249;BME280;38541;48.130;8.378;2022-08-25T08:15:27;92839.72;;;19.33;65.29
52249;BME280;38541;48.130;8.378;2022-08-25T08:17:56;92840.34;;;19.38;64.51
52249;BME280;38541;48.130;8.378;2022-08-25T08:20:23;92845.06;;;19.42;64.09
52249;BME280;38541;48.130;8.378;2022-08-25T08:22:51;92848.34;;;19.47;64.37
52249;BME280;38541;48.130;8.378;2022-08-25T08:25:17;92846.78;;;19.55;64.10
52249;BME280;38541;48.130;8.378;2022-08-25T08:27:53;92843.00;;;19.56;63.31
52249;BME280;38541;48.130;8.378;2022-08-25T08:30:21;92842.22;;;19.64;63.28
52249;BME280;38541;48.130;8.378;2022-08-25T08:32:52;92837.66;;;19.74;63.35
52249;BME280;38541;48.130;8.378;2022-08-25T08:35:35;92848.13;;;19.79;63.72
52249;BME280;38541;48.130;8.378;2022-08-25T08:38:03;92846.44;;;19.83;62.65
52249;BME280;38541;48.130;8.378;2022-08-25T08:40:47;92846.25;;;19.88;62.83
52249;BME280;38541;48.130;8.378;2022-08-25T08:43:41;92841.69;;;19.98;62.36
52249;BME280;38541;48.130;8.378;2022-08-25T08:46:09;92836.97;;;20.03;62.17
52249;BME280;38541;48.130;8.378;2022-08-25T08:48:57;92847.16;;;20.10;62.23
52249;BME280;38541;48.130;8.378;2022-08-25T08:51:30;92839.91;;;20.19;62.57
52249;BME280;38541;48.130;8.378;2022-08-25T08:54:09;92843.50;;;20.23;61.67
52249;BME280;38541;48.130;8.378;2022-08-25T08:56:43;92839.41;;;20.26;60.88
52249;BME280;38541;48.130;8.378;2022-08-25T08:59:20;92839.72;;;20.33;60.96
52249;BME280;38541;48.130;8.378;2022-08-25T09:01:57;92841.41;;;20.38;61.15
52249;BME280;38541;48.130;8.378;2022-08-25T09:04:43;92834.34;;;20.42;61.42
52249;BME280;38541;48.130;8.378;2022-08-25T09:07:17;92834.13;;;20.47;61.28
52249;BME280;38541;48.130;8.378;2022-08-25T09:09:46;92837.72;;;20.51;60.35
52249;BME280;38541;48.130;8.378;2022-08-25T09:12:36;92836.91;;;20.60;60.67
52249;BME280;38541;48.130;8.378;2022-08-25T09:15:43;92833.41;;;20.68;60.58
52249;BME280;38541;48.130;8.378;2022-08-25T09:18:41;92835.25;;;20.76;59.42
52249;BME280;38541;48.130;8.378;2022-08-25T09:21:37;92831.44;;;20.86;59.80
52249;BME280;38541;48.130;8.378;2022-08-25T09:24:37;92831.41;;;20.95;59.29
52249;BME280;38541;48.130;8.378;2022-08-25T09:30:02;92819.84;;;21.03;57.42
52249;BME280;38541;48.130;8.378;2022-08-25T09:32:38;92823.13;;;21.09;57.71
52249;BME280;38541;48.130;8.378;2022-08-25T09:35:20;92825.91;;;21.13;57.04
52249;BME280;38541;48.130;8.378;2022-08-25T09:38:01;92829.31;;;21.22;57.06
52249;BME280;38541;48.130;8.378;2022-08-25T09:40:32;92820.44;;;21.30;55.10
52249;BME280;38541;48.130;8.378;2022-08-25T09:43:02;92824.47;;;21.36;55.72
52249;BME280;38541;48.130;8.378;2022-08-25T09:45:40;92822.41;;;21.42;56.67
52249;BME280;38541;48.130;8.378;2022-08-25T09:50:58;92823.66;;;21.57;56.09
52249;BME280;38541;48.130;8.378;2022-08-25T09:53:28;92823.44;;;21.62;55.48
52249;BME280;38541;48.130;8.378;2022-08-25T09:56:02;92804.00;;;21.74;55.83
52249;BME280;38541;48.130;8.378;2022-08-25T09:58:31;92805.50;;;21.84;53.73
52249;BME280;38541;48.130;8.378;2022-08-25T10:01:06;92809.31;;;21.95;52.22
52249;BME280;38541;48.130;8.378;2022-08-25T10:03:56;92808.78;;;22.02;53.36
52249;BME280;38541;48.130;8.378;2022-08-25T10:06:27;92804.63;;;22.05;52.38
52249;BME280;38541;48.130;8.378;2022-08-25T10:08:58;92800.53;;;22.07;53.15
52249;BME280;38541;48.130;8.378;2022-08-25T10:11:36;92800.63;;;22.11;52.11
52249;BME280;38541;48.130;8.378;2022-08-25T10:14:17;92798.09;;;22.27;53.79
52249;BME280;38541;48.130;8.378;2022-08-25T10:16:44;92799.22;;;22.51;53.88
52249;BME280;38541;48.130;8.378;2022-08-25T10:19:26;92799.88;;;22.73;53.09
52249;BME280;38541;48.130;8.378;2022-08-25T10:22:06;92797.28;;;22.89;52.35
52249;BME280;38541;48.130;8.378;2022-08-25T10:24:37;92795.16;;;22.94;52.30
52249;BME280;38541;48.130;8.378;2022-08-25T10:30:15;92795.31;;;23.27;49.74
52249;BME280;38541;48.130;8.378;2022-08-25T10:35:44;92787.78;;;23.45;49.63
52249;BME280;38541;48.130;8.378;2022-08-25T10:38:40;92784.56;;;23.55;47.14
52249;BME280;38541;48.130;8.378;2022-08-25T10:44:18;92778.63;;;23.78;47.74
52249;BME280;38541;48.130;8.378;2022-08-25T10:55:44;92779.94;;;24.81;45.38
52249;BME280;38541;48.130;8.378;2022-08-25T11:06:51;92749.50;;;25.32;44.53
52249;BME280;38541;48.130;8.378;2022-08-25T11:09:24;92754.22;;;25.39;43.40
52249;BME280;38541;48.130;8.378;2022-08-25T11:12:04;92753.41;;;25.54;43.19
52249;BME280;38541;48.130;8.378;2022-08-25T11:14:37;92753.66;;;25.69;43.09
52249;BME280;38541;48.130;8.378;2022-08-25T11:17:18;92757.38;;;25.84;43.22
52249;BME280;38541;48.130;8.378;2022-08-25T11:19:51;92749.34;;;25.64;43.46
52249;BME280;38541;48.130;8.378;2022-08-25T11:22:49;92750.03;;;25.81;43.16
52249;BME280;38541;48.130;8.378;2022-08-25T11:25:27;92749.38;;;25.87;42.55
52249;BME280;38541;48.130;8.378;2022-08-25T11:27:59;92741.44;;;26.18;42.95
52249;BME280;38541;48.130;8.378;2022-08-25T11:30:29;92737.28;;;26.24;41.93
52249;BME280;38541;48.130;8.378;2022-08-25T11:32:56;92736.84;;;25.99;42.06
52249;BME280;38541;48.130;8.378;2022-08-25T11:38:17;92736.19;;;26.56;39.98
52249;BME280;38541;48.130;8.378;2022-08-25T11:41:31;92730.69;;;26.75;41.77
52249;BME280;38541;48.130;8.378;2022-08-25T11:51:43;92736.94;;;27.44;38.41
52249;BME280;38541;48.130;8.378;2022-08-25T11:56:40;92728.81;;;27.41;39.11
52249;BME280;38541;48.130;8.378;2022-08-25T11:59:07;92730.78;;;27.47;38.98
52249;BME280;38541;48.130;8.378;2022-08-25T12:09:34;92720.22;;;27.31;37.79
52249;BME280;38541;48.130;8.378;2022-08-25T12:12:28;92725.72;;;27.42;39.89
52249;BME280;38541;48.130;8.378;2022-08-25T12:15:31;92722.91;;;27.31;38.16
52249;BME280;38541;48.130;8.378;2022-08-25T12:18:09;92713.53;;;27.52;39.28
52249;BME280;38541;48.130;8.378;2022-08-25T12:23:36;92712.31;;;27.87;37.12
52249;BME280;38541;48.130;8.378;2022-08-25T12:34:52;92705.97;;;26.97;39.48
52249;BME280;38541;48.130;8.378;2022-08-25T12:37:21;92711.00;;;26.71;39.25
52249;BME280;38541;48.130;8.378;2022-08-25T12:42:35;92715.75;;;27.09;40.04
52249;BME280;38541;48.130;8.378;2022-08-25T12:47:50;92704.81;;;26.71;40.24
52249;BME280;38541;48.130;8.378;2022-08-25T12:50:43;92710.78;;;26.84;40.18
52249;BME280;38541;48.130;8.378;2022-08-25T12:53:18;92710.16;;;27.62;39.00
52249;BME280;38541;48.130;8.378;2022-08-25T12:56:21;92705.13;;;28.06;37.00
52249;BME280;38541;48.130;8.378;2022-08-25T12:58:54;92701.16;;;27.92;38.10
52249;BME280;38541;48.130;8.378;2022-08-25T13:07:23;92695.94;;;28.70;36.88
52249;BME280;38541;48.130;8.378;2022-08-25T13:10:23;92697.72;;;29.15;35.21
52249;BME280;38541;48.130;8.378;2022-08-25T13:13:09;92697.59;;;28.86;34.29
52249;BME280;38541;48.130;8.378;2022-08-25T13:15:47;92695.91;;;28.63;35.92
52249;BME280;38541;48.130;8.378;2022-08-25T13:18:29;92695.81;;;29.23;33.38
52249;BME280;38541;48.130;8.378;2022-08-25T13:23:42;92688.25;;;30.15;33.34
52249;BME280;38541;48.130;8.378;2022-08-25T13:26:14;92694.00;;;30.50;32.81
52249;BME280;38541;48.130;8.378;2022-08-25T13:28:52;92684.69;;;30.84;32.29
52249;BME280;38541;48.130;8.378;2022-08-25T13:31:20;92684.59;;;31.02;32.06
52249;BME280;38541;48.130;8.378;2022-08-25T13:33:57;92684.13;;;31.29;32.61
52249;BME280;38541;48.130;8.378;2022-08-25T13:36:26;92688.47;;;31.86;30.87
52249;BME280;38541;48.130;8.378;2022-08-25T13:39:22;92677.88;;;31.99;30.85
52249;BME280;38541;48.130;8.378;2022-08-25T13:42:15;92680.75;;;32.27;29.89
52249;BME280;38541;48.130;8.378;2022-08-25T13:44:43;92678.28;;;31.38;30.06
52249;BME280;38541;48.130;8.378;2022-08-25T13:47:37;92669.13;;;30.95;32.00
52249;BME280;38541;48.130;8.378;2022-08-25T13:53:04;92672.63;;;31.70;31.14
52249;BME280;38541;48.130;8.378;2022-08-25T13:58:21;92662.69;;;31.49;30.44
52249;BME280;38541;48.130;8.378;2022-08-25T14:03:40;92665.94;;;31.15;31.33
52249;BME280;38541;48.130;8.378;2022-08-25T14:08:43;92663.19;;;31.93;30.05
52249;BME280;38541;48.130;8.378;2022-08-25T14:11:26;92663.13;;;32.00;29.99
52249;BME280;38541;48.130;8.378;2022-08-25T14:16:52;92654.00;;;31.01;30.81
52249;BME280;38541;48.130;8.378;2022-08-25T14:19:23;92649.06;;;30.56;31.63
52249;BME280;38541;48.130;8.378;2022-08-25T14:21:51;92650.63;;;30.65;31.46
52249;BME280;38541;48.130;8.378;2022-08-25T14:24:22;92650.66;;;30.28;32.12
52249;BME280;38541;48.130;8.378;2022-08-25T14:26:50;92646.03;;;30.00;33.41
52249;BME280;38541;48.130;8.378;2022-08-25T14:29:20;92649.53;;;29.68;34.23
52249;BME280;38541;48.130;8.378;2022-08-25T14:31:47;92658.41;;;29.57;34.46
52249;BME280;38541;48.130;8.378;2022-08-25T14:34:18;92651.00;;;29.32;33.20
52249;BME280;38541;48.130;8.378;2022-08-25T14:36:46;92654.06;;;29.24;34.41
52249;BME280;38541;48.130;8.378;2022-08-25T14:39:13;92641.69;;;29.23;34.44
52249;BME280;38541;48.130;8.378;2022-08-25T14:41:42;92646.69;;;29.24;34.21
52249;BME280;38541;48.130;8.378;2022-08-25T14:44:18;92647.47;;;29.21;33.75
52249;BME280;38541;48.130;8.378;2022-08-25T14:46:51;92641.69;;;29.23;34.30
52249;BME280;38541;48.130;8.378;2022-08-25T14:49:25;92642.06;;;29.25;34.26
52249;BME280;38541;48.130;8.378;2022-08-25T14:51:56;92645.91;;;29.16;34.94
52249;BME280;38541;48.130;8.378;2022-08-25T14:54:25;92644.75;;;29.10;34.74
52249;BME280;38541;48.130;8.378;2022-08-25T14:56:52;92639.31;;;29.03;34.99
52249;BME280;38541;48.130;8.378;2022-08-25T14:59:19;92643.72;;;29.73;33.85
52249;BME280;38541;48.130;8.378;2022-08-25T15:01:46;92638.31;;;30.16;32.79